Latest Weather Observations for Nerriga

IDN60801

Issued at 11:32 am EST Wednesday 22 April 2015 (issued every 30 minutes, with the page automatically refreshed every 10 minutes)

About weather observations | Map of weather stations | Latest weather observations for NSW | Other Formats
Station Details ID: 069128 Name: NERRIGA AWS Lat: -35.11 Lon: 150.08 Height: 622.0 m
Data from the previous 72 hours. | See also: Recent months at Nerriga
Date/Time
EST
Temp
°C
App
Temp
°C
Dew
Point
Rel
Hum
%
Delta-T
°C
Wind Press
QNH
hPa
Press
MSL
hPa
Rain
since 9 am
mm
Dir
 
Spd
km/h
Gust
km/h
Spd
kts
Gust
kts
22/11:30am 11.9 8.1 11.3 96 0.3 S 22 43 12 23 1016.7 1015.8 2.8
22/11:00am 11.7 7.5 11.2 97 0.3 S 24 44 13 24 1017.5 1016.5 0.8
22/10:30am 11.6 9.1 11.1 97 0.3 S 15 26 8 14 1017.7 1016.8 0.8
22/10:00am 11.9 8.2 11.4 97 0.3 S 22 41 12 22 1017.7 1016.8 0.6
22/09:30am 11.3 8.0 10.8 97 0.3 S 19 35 10 19 1017.8 1016.9 0.4
22/09:16am 11.2 6.1 10.6 96 0.3 S 28 46 15 25 1017.6 1016.6 0.2
22/09:00am 11.2 6.5 10.7 97 0.3 S 26 44 14 24 1017.7 1016.8 19.0
22/08:30am 11.1 6.0 10.6 97 0.3 S 28 52 15 28 1018.0 1017.1 18.6
22/08:20am 11.0 5.8 10.4 96 0.3 S 28 52 15 28 1018.0 1017.1 18.6
22/08:00am 11.1 6.0 10.5 96 0.3 S 28 43 15 23 1018.0 1017.1 18.4
22/07:30am 10.8 5.2 10.2 96 0.3 S 30 50 16 27 1018.0 1017.1 17.8
22/07:00am 10.6 4.4 10.0 96 0.3 SSE 33 52 18 28 1017.8 1016.9 17.4
22/06:31am 10.7 3.7 9.9 95 0.4 SSE 37 56 20 30 1017.5 1016.5 17.2
22/06:30am 10.7 3.7 10.1 96 0.3 SSE 37 54 20 29 1017.5 1016.5 17.2
22/06:00am 10.7 3.7 9.9 95 0.4 SSE 37 57 20 31 1017.2 1016.2 16.8
22/05:30am 10.6 4.6 10.0 96 0.3 SSE 32 50 17 27 1017.2 1016.2 16.6
22/05:00am 10.5 3.5 9.9 96 0.3 SSE 37 61 20 33 1017.0 1016.0 16.4
22/04:31am 10.6 4.3 9.8 95 0.4 SSE 33 54 18 29 1016.8 1015.9 16.0
22/04:30am 10.6 4.3 9.8 95 0.4 SSE 33 52 18 28 1016.8 1015.9 16.0
22/04:00am 10.7 4.5 9.9 95 0.4 SSE 33 52 18 28 1017.1 1016.1 15.8
22/03:30am 10.6 5.3 9.8 95 0.4 SSE 28 52 15 28 1017.1 1016.1 15.6
22/03:00am 10.6 4.9 9.8 95 0.4 SSE 30 54 16 29 1017.5 1016.5 15.4
22/02:59am 10.6 4.9 9.8 95 0.4 SSE 30 54 16 29 1017.4 1016.4 15.4
22/02:30am 10.5 5.2 9.7 95 0.4 SSE 28 43 15 23 1017.9 1017.0 15.4
22/02:00am 10.5 4.4 9.7 95 0.4 SSE 32 50 17 27 1018.2 1017.3 15.2
22/01:30am 10.5 5.1 9.6 94 0.5 SSE 28 48 15 26 1018.3 1017.4 14.8
22/01:29am 10.5 5.1 9.6 94 0.5 SSE 28 48 15 26 1018.2 1017.3 14.8
22/01:00am 10.4 5.8 9.6 95 0.4 S 24 41 13 22 1018.5 1017.6 14.6
22/12:49am 10.4 5.0 9.6 95 0.4 S 28 46 15 25 1018.4 1017.5 14.6
22/12:30am 10.5 3.8 9.6 94 0.5 S 35 48 19 26 1018.8 1017.8 14.4
22/12:10am 10.3 4.9 9.5 95 0.4 SSE 28 46 15 25 1019.1 1018.2 14.2
22/12:00am 10.3 4.1 9.5 95 0.4 SSE 32 48 17 26 1019.2 1018.3 14.2
 
Date/Time
EST
Temp
°C
App
Temp
°C
Dew
Point
Rel
Hum
%
Delta-T
°C
Wind Press
QNH
hPa
Press
MSL
hPa
Rain
since 9 am
mm
Dir
 
Spd
km/h
Gust
km/h
Spd
kts
Gust
kts
21/11:30pm 10.3 3.6 9.5 95 0.4 S 35 56 19 30 1019.2 1018.3 13.6
21/11:00pm 10.1 4.7 9.5 96 0.3 SSE 28 48 15 26 1019.9 1019.0 13.2
21/10:30pm 10.1 2.9 9.2 94 0.5 SSE 37 57 20 31 1020.2 1019.3 12.6
21/10:00pm 9.9 3.4 9.0 94 0.5 SSE 33 65 18 35 1020.4 1019.4 12.4
21/09:30pm 9.8 2.5 8.7 93 0.6 SSE 37 63 20 34 1020.8 1019.9 12.2
21/09:00pm 9.8 2.9 8.7 93 0.6 S 35 59 19 32 1021.0 1020.1 11.8
21/08:37pm 9.6 3.2 8.7 94 0.5 SSE 32 52 17 28 1021.1 1020.2 11.6
21/08:30pm 9.7 3.8 8.9 95 0.4 SSE 30 44 16 24 1021.2 1020.3 11.6
21/08:13pm 9.5 3.1 8.7 95 0.4 SSE 32 50 17 27 1021.4 1020.5 11.2
21/08:00pm 9.6 3.2 8.7 94 0.5 S 32 48 17 26 1021.5 1020.6 11.0
21/07:30pm 9.5 3.5 8.6 94 0.5 S 30 48 16 26 1021.5 1020.6 10.6
21/07:00pm 9.6 3.6 8.8 95 0.4 S 30 54 16 29 1022.1 1021.2 10.4
21/06:31pm 9.5 3.9 8.7 95 0.4 S 28 57 15 31 1022.5 1021.6 10.2
21/06:30pm 9.5 4.3 8.7 95 0.4 S 26 57 14 31 1022.5 1021.6 10.2
21/06:00pm 9.3 4.4 8.5 95 0.4 S 24 41 13 22 1022.3 1021.4 10.0
21/05:37pm 9.3 3.2 8.4 94 0.5 S 30 48 16 26 1022.1 1021.2 9.4
21/05:30pm 9.3 3.6 8.2 93 0.5 S 28 43 15 23 1022.1 1021.2 9.4
21/05:09pm 9.5 3.4 8.4 93 0.6 S 30 50 16 27 1021.9 1021.1 9.0
21/05:00pm 9.5 3.9 8.6 94 0.5 S 28 43 15 23 1021.9 1021.1 8.8
21/04:36pm 9.5 3.9 8.6 94 0.5 S 28 46 15 25 1022.3 1021.4 8.8
21/04:30pm 9.6 3.6 8.5 93 0.6 S 30 46 16 25 1022.2 1021.3 8.8
21/04:28pm 9.6 3.9 8.5 93 0.6 S 28 46 15 25 1022.2 1021.3 8.8
21/04:00pm 9.2 3.4 8.1 93 0.5 SSE 28 43 15 23 1022.4 1021.5 8.8
21/03:32pm 9.6 2.6 8.5 93 0.6 SSE 35 56 19 30 1022.2 1021.3 8.2
21/03:30pm 9.5 2.5 8.4 93 0.6 SSE 35 50 19 27 1022.2 1021.3 8.0
21/03:02pm 9.5 3.8 8.4 93 0.6 SSE 28 46 15 25 1022.3 1021.4 7.6
21/03:00pm 9.5 3.4 8.3 92 0.6 SSE 30 46 16 25 1022.2 1021.3 7.6
21/02:30pm 9.5 3.4 8.1 91 0.7 SSE 30 48 16 26 1022.6 1021.7 7.4
21/02:19pm 9.4 3.6 8.0 91 0.7 SSE 28 57 15 31 1022.5 1021.6 7.2
21/02:00pm 9.4 5.3 8.8 96 0.3 SSE 20 37 11 20 1022.6 1021.7 6.8
21/01:30pm 9.7 2.7 8.5 92 0.6 SSE 35 57 19 31 1023.0 1022.1 5.4
21/01:00pm 9.2 3.1 8.3 94 0.4 SSE 30 54 16 29 1023.1 1022.2 5.2
21/12:45pm 9.2 3.5 8.3 94 0.5 SSE 28 50 15 27 1023.4 1022.6 4.8
21/12:30pm 9.1 4.5 8.3 95 0.4 SSE 22 41 12 22 1023.6 1022.8 4.4
21/12:00pm 9.5 3.9 8.6 94 0.5 SSE 28 41 15 22 1023.6 1022.8 3.8
21/11:34am 9.1 3.0 8.2 94 0.4 S 30 48 16 26 1024.3 1023.4 3.4
21/11:30am 9.1 2.6 8.3 95 0.4 SSE 32 48 17 26 1024.4 1023.5 3.4
21/11:00am 9.1 4.2 8.3 95 0.4 SSE 24 39 13 21 1024.7 1023.9 2.6
21/10:46am 9.1 3.4 8.3 95 0.4 SSE 28 48 15 26 1024.8 1024.0 2.6
21/10:30am 8.8 4.6 8.2 96 0.3 S 20 33 11 18 1025.0 1024.2 2.2
21/10:00am 8.5 3.8 7.9 96 0.3 SSE 22 33 12 18 1025.8 1024.9 1.0
21/09:30am 8.6 3.2 7.8 95 0.4 SSE 26 43 14 23 1025.8 1024.9 0.4
21/09:00am 8.4 3.7 7.8 96 0.3 SSE 22 35 12 19 1025.8 1024.9 12.6
21/08:30am 8.2 3.8 7.6 96 0.3 S 20 33 11 18 1025.8 1024.9 12.4
21/08:00am 8.2 2.7 7.6 96 0.3 S 26 44 14 24 1025.6 1024.7 12.0
21/07:30am 8.1 3.3 7.5 96 0.3 S 22 37 12 20 1025.5 1024.6 12.0
21/07:00am 8.2 3.8 7.6 96 0.3 S 20 33 11 18 1025.3 1024.5 11.4
21/06:30am 8.1 3.7 7.5 96 0.3 S 20 39 11 21 1025.1 1024.3 10.6
21/06:00am 8.3 3.2 7.7 96 0.3 SSE 24 41 13 22 1025.2 1024.4 10.2
21/05:30am 8.3 4.2 7.9 97 0.2 SSE 19 30 10 16 1025.2 1024.4 10.0
21/05:00am 8.3 3.2 7.7 96 0.3 SSE 24 35 13 19 1024.9 1024.1 8.8
21/04:30am 8.3 4.0 7.7 96 0.3 SSE 20 32 11 17 1024.9 1024.1 8.0
21/04:00am 8.4 2.1 7.6 95 0.4 SSE 30 44 16 24 1025.0 1024.2 7.6
21/03:37am 8.4 1.5 7.3 93 0.5 SSE 33 54 18 29 1025.1 1024.3 7.6
21/03:30am 8.4 1.2 7.5 94 0.4 SSE 35 50 19 27 1025.0 1024.2 7.6
21/03:03am 8.3 2.4 7.7 96 0.3 SSE 28 48 15 26 1025.1 1024.3 7.4
21/03:00am 8.4 1.8 7.6 95 0.4 SSE 32 48 17 26 1025.1 1024.3 7.4
21/02:30am 8.3 2.8 7.4 94 0.4 SSE 26 43 14 23 1025.3 1024.5 7.4
21/02:10am 8.5 2.3 7.7 95 0.4 SSE 30 50 16 27 1025.6 1024.7 7.2
21/02:00am 8.4 1.8 7.8 96 0.3 SSE 32 43 17 23 1025.6 1024.7 7.2
21/01:30am 8.4 3.0 8.0 97 0.2 SSE 26 37 14 20 1026.1 1025.3 7.0
21/01:00am 8.5 3.0 7.7 95 0.4 SSE 26 44 14 24 1026.2 1025.4 6.2
21/12:42am 8.7 2.9 7.8 94 0.4 SSE 28 50 15 27 1026.3 1025.5 5.8
21/12:30am 8.5 3.4 7.7 95 0.4 SSE 24 41 13 22 1026.3 1025.5 5.6
21/12:13am 8.4 2.6 7.8 96 0.3 SSE 28 48 15 26 1026.3 1025.5 5.4
21/12:00am 8.3 2.8 7.5 95 0.4 SSE 26 41 14 22 1026.4 1025.6 5.4
 
Date/Time
EST
Temp
°C
App
Temp
°C
Dew
Point
Rel
Hum
%
Delta-T
°C
Wind Press
QNH
hPa
Press
MSL
hPa
Rain
since 9 am
mm
Dir
 
Spd
km/h
Gust
km/h
Spd
kts
Gust
kts
20/11:30pm 8.3 2.4 7.5 95 0.4 SSE 28 41 15 22 1026.7 1025.9 5.4
20/11:13pm 8.4 1.8 7.6 95 0.4 SSE 32 50 17 27 1026.9 1026.1 5.2
20/11:00pm 8.5 1.7 7.6 94 0.4 SSE 33 48 18 26 1027.0 1026.2 5.0
20/10:35pm 8.5 2.6 7.7 95 0.4 S 28 52 15 28 1027.5 1026.7 5.0
20/10:30pm 8.5 3.5 7.9 96 0.3 SSE 24 37 13 20 1027.6 1026.8 5.0
20/10:00pm 8.5 3.8 7.7 95 0.4 SSE 22 33 12 18 1028.0 1027.2 4.8
20/09:30pm 8.5 3.8 7.9 96 0.3 SSE 22 35 12 19 1027.8 1027.0 4.4
20/09:00pm 8.2 3.0 7.4 95 0.4 SSE 24 37 13 20 1027.5 1026.7 4.0
20/08:30pm 8.2 2.6 7.3 94 0.4 SSE 26 43 14 23 1027.2 1026.3 3.6
20/08:00pm 8.2 0.5 7.1 93 0.5 SSE 37 59 20 32 1026.8 1026.0 3.4
20/07:39pm 8.5 1.7 7.6 94 0.4 SSE 33 52 18 28 1026.5 1025.7 3.2
20/07:30pm 8.6 1.8 7.5 93 0.5 SSE 33 50 18 27 1026.6 1025.8 3.0
20/07:20pm 8.6 2.7 7.5 93 0.5 S 28 48 15 26 1026.6 1025.8 3.0
20/07:00pm 8.7 4.0 7.8 94 0.4 S 22 39 12 21 1026.6 1025.8 2.8
20/06:32pm 8.8 2.6 8.0 95 0.4 SSE 30 50 16 27 1026.6 1025.8 2.6
20/06:30pm 8.7 2.1 7.8 94 0.4 SSE 32 50 17 27 1026.6 1025.8 2.6
20/06:01pm 8.7 2.8 7.5 92 0.6 S 28 57 15 31 1026.4 1025.6 2.4
20/06:00pm 8.7 2.8 7.5 92 0.6 S 28 44 15 24 1026.3 1025.5 2.4
20/05:42pm 8.9 3.0 7.5 91 0.7 SSE 28 50 15 27 1026.4 1025.6 2.4
20/05:30pm 9.0 3.5 7.6 91 0.7 S 26 39 14 21 1026.5 1025.7 2.4
20/05:00pm 9.0 2.7 7.5 90 0.7 S 30 54 16 29 1026.6 1025.8 2.4
20/04:39pm 9.0 3.1 7.6 91 0.7 S 28 46 15 25 1026.6 1025.8 2.2
20/04:30pm 8.8 3.7 7.7 93 0.5 S 24 37 13 20 1026.6 1025.8 2.2
20/04:02pm 9.0 2.8 7.8 92 0.6 SSE 30 52 16 28 1026.6 1025.8 2.2
20/04:00pm 9.1 3.2 7.7 91 0.7 SSE 28 46 15 25 1026.7 1025.9 2.0
20/03:30pm 9.3 3.1 7.9 91 0.7 S 30 48 16 26 1026.4 1025.6 1.8
20/03:00pm 9.5 2.7 7.8 89 0.8 S 33 59 18 32 1025.9 1025.0 1.8
20/02:34pm 9.4 2.9 8.0 91 0.7 S 32 50 17 27 1025.7 1024.8 1.6
20/02:30pm 9.4 2.7 8.0 91 0.7 S 33 52 18 28 1025.7 1024.8 1.6
20/02:00pm 9.4 3.3 8.2 92 0.6 S 30 48 16 26 1026.2 1025.4 1.6
20/01:30pm 9.3 3.6 8.4 94 0.5 SSE 28 48 15 26 1026.6 1025.8 1.6
20/01:00pm 9.4 2.3 8.2 92 0.6 SSE 35 59 19 32 1026.4 1025.6 1.2
20/12:32pm 8.9 2.2 7.5 91 0.7 S 32 59 17 32 1026.6 1025.8 1.0
20/12:30pm 8.9 2.7 7.7 92 0.6 S 30 43 16 23 1026.7 1025.9 0.8
20/12:00pm 9.3 2.8 8.1 92 0.6 S 32 57 17 31 1026.6 1025.8 0.8
20/11:30am 9.4 2.8 8.5 94 0.5 S 33 52 18 28 1027.4 1026.5 0.8
20/11:00am 9.3 2.2 8.2 93 0.5 SSE 35 63 19 34 1027.7 1026.9 0.6
20/10:30am 9.0 3.2 8.1 94 0.4 S 28 50 15 27 1026.9 1026.1 0.4
20/10:03am 8.7 2.9 7.8 94 0.4 SSE 28 52 15 28 1027.9 1027.1 0.4
20/10:00am 8.7 3.3 8.1 96 0.3 S 26 39 14 21 1027.9 1027.1 0.4
20/09:45am 8.7 2.9 7.9 95 0.4 S 28 46 15 25 1027.6 1026.8 0.2
20/09:30am 8.5 1.9 7.7 95 0.4 S 32 46 17 25 1028.0 1027.2 0.0
20/09:00am 8.4 1.8 7.6 95 0.4 S 32 52 17 28 1027.4 1026.5 12.4
20/08:31am 7.9 1.5 7.0 94 0.4 S 30 50 16 27 1028.2 1027.4 12.2
20/08:30am 8.0 1.6 7.1 94 0.4 S 30 43 16 23 1028.1 1027.3 12.2
20/08:16am 7.8 1.4 7.1 95 0.3 S 30 50 16 27 1027.9 1027.1 12.0
20/08:00am 7.8 1.4 6.9 94 0.4 S 30 44 16 24 1027.3 1026.4 12.0
20/07:30am 7.5 2.5 6.6 94 0.4 S 22 33 12 18 1027.6 1026.8 11.2
20/07:00am 7.3 2.9 6.4 94 0.4 S 19 33 10 18 1027.2 1026.3 10.8
20/06:30am 7.6 1.7 5.9 89 0.8 S 26 41 14 22 1026.7 1025.9 10.4
20/06:01am 7.7 1.4 5.8 88 0.9 S 28 50 15 27 1026.4 1025.6 10.4
20/06:00am 7.6 1.7 5.9 89 0.8 S 26 50 14 27 1026.4 1025.6 10.4
20/05:30am 7.4 1.2 6.0 91 0.7 SSE 28 46 15 25 1026.1 1025.3 10.4
20/05:26am 7.3 1.0 5.9 91 0.7 S 28 46 15 25 1026.0 1025.2 10.4
20/05:00am 7.4 1.2 6.0 91 0.7 S 28 43 15 23 1026.1 1025.3 10.4
20/04:30am 7.3 0.3 6.2 93 0.5 S 32 54 17 29 1026.2 1025.4 10.4
20/04:13am 7.2 0.6 6.1 93 0.5 S 30 50 16 27 1025.9 1025.0 10.4
20/04:00am 7.0 0.4 5.9 93 0.5 S 30 43 16 23 1025.8 1024.9 10.4
20/03:30am 7.1 1.2 5.7 91 0.7 S 26 35 14 19 1026.0 1025.2 10.2
20/03:00am 7.0 1.8 5.6 91 0.6 S 22 37 12 20 1026.4 1025.6 10.2
20/02:30am 6.8 2.2 5.4 91 0.6 S 19 32 10 17 1026.8 1026.0 10.2
20/02:00am 6.8 1.2 5.3 90 0.7 S 24 43 13 23 1026.7 1025.9 10.2
20/01:30am 6.8 2.4 5.0 88 0.8 S 17 33 9 18 1027.3 1026.4 10.2
20/01:00am 6.6 2.7 5.2 91 0.6 S 15 22 8 12 1027.0 1026.2 10.2
20/12:30am 6.6 2.0 5.4 92 0.6 S 19 28 10 15 1027.4 1026.5 10.2
20/12:00am 7.0 3.5 5.3 89 0.8 S 13 22 7 12 1027.6 1026.8 10.0
 
Date/Time
EST
Temp
°C
App
Temp
°C
Dew
Point
Rel
Hum
%
Delta-T
°C
Wind Press
QNH
hPa
Press
MSL
hPa
Rain
since 9 am
mm
Dir
 
Spd
km/h
Gust
km/h
Spd
kts
Gust
kts
19/11:30pm 7.6 3.6 5.1 84 1.2 S 15 26 8 14 1027.4 1026.5 9.4
19/11:00pm 7.6 1.6 5.1 84 1.1 S 26 37 14 20 1026.8 1026.0 9.4
19/10:30pm 7.8 2.6 5.3 84 1.2 S 22 32 12 17 1026.8 1026.0 9.2
19/10:00pm 8.2 3.5 5.3 82 1.3 S 19 32 10 17 1027.2 1026.3 9.2
19/09:30pm 8.1 3.3 5.4 83 1.3 S 20 28 11 15 1026.9 1026.1 9.2
19/09:00pm 8.0 3.8 5.6 85 1.1 S 17 33 9 18 1026.8 1026.0 9.2
19/08:30pm 8.2 3.4 5.7 84 1.2 S 20 32 11 17 1026.3 1025.5 9.2
19/08:00pm 8.0 3.4 5.8 86 1.0 S 19 30 10 16 1025.9 1025.0 9.2
19/07:30pm 7.4 4.9 6.5 94 0.4 SSW 9 15 5 8 1025.7 1024.8 9.2
19/07:00pm 7.3 5.4 6.7 96 0.3 S 6 7 3 4 1025.2 1024.4 9.2
19/06:30pm 7.3 4.7 6.1 92 0.6 S 9 15 5 8 1024.9 1024.1 9.2
19/06:00pm 7.3 3.6 6.2 93 0.5 SSE 15 24 8 13 1024.4 1023.5 9.2
19/05:30pm 7.4 4.2 6.7 95 0.3 SSW 13 22 7 12 1024.4 1023.5 8.8
19/05:00pm 7.4 3.8 6.7 95 0.3 S 15 20 8 11 1024.0 1023.1 8.4
19/04:30pm 7.4 3.4 6.8 96 0.3 S 17 26 9 14 1023.6 1022.8 8.2
19/04:00pm 7.3 3.7 6.6 95 0.3 S 15 22 8 12 1023.3 1022.5 7.2
19/03:30pm 7.3 3.7 6.7 96 0.3 S 15 22 8 12 1022.8 1021.9 6.8
19/03:00pm 7.4 2.8 6.5 94 0.4 S 20 37 11 20 1022.4 1021.5 4.4
19/02:30pm 8.9 5.3 8.3 96 0.3 SSE 17 26 9 14 1021.4 1020.5 2.8
19/02:00pm 9.2 5.2 8.4 95 0.4 SE 19 32 10 17 1020.8 1019.9 1.2
19/01:30pm 10.0 5.2 8.9 93 0.6 ESE 24 33 13 18 1020.5 1019.6 0.4
19/01:00pm 11.7 7.9 9.9 89 0.9 ESE 20 30 11 16 1020.5 1019.6 0.0
19/12:30pm 13.5 11.6 10.5 82 1.6 NE 11 24 6 13 1020.5 1019.6 0.0
19/12:00pm 14.5 12.2 9.1 70 2.8 NNW 11 13 6 7 1020.6 1019.7 0.0

Other Formats:

Comma delimited format used in spreadsheet applications
http://www.bom.gov.au/fwo/IDN60801/IDN60801.94943.axf

JavaScript Object Notation format (JSON) in row-major order
http://www.bom.gov.au/fwo/IDN60801/IDN60801.94943.json